createdAt,value
2022-09-24T00:02:07.032Z,69.60
2022-09-24T00:04:35.891Z,69.83
2022-09-24T00:07:04.090Z,70.00
2022-09-24T00:09:32.223Z,69.93
2022-09-24T00:12:00.643Z,69.95
2022-09-24T00:14:30.117Z,70.45
2022-09-24T00:16:58.240Z,70.32
2022-09-24T00:19:26.303Z,70.47
2022-09-24T00:21:54.400Z,70.64
2022-09-24T00:24:39.812Z,71.13
2022-09-24T00:27:08.254Z,70.54
2022-09-24T00:29:38.384Z,70.73
2022-09-24T00:32:07.409Z,70.69
2022-09-24T00:34:35.615Z,70.65
2022-09-24T00:37:03.703Z,71.14
2022-09-24T00:39:31.745Z,71.71
2022-09-24T00:41:59.953Z,71.80
2022-09-24T00:44:57.340Z,71.70
2022-09-24T00:47:36.944Z,71.45
2022-09-24T00:50:26.527Z,71.50
2022-09-24T00:52:58.145Z,72.10
2022-09-24T00:55:26.708Z,72.58
2022-09-24T00:57:57.706Z,73.27
2022-09-24T01:00:27.820Z,73.99
2022-09-24T01:03:00.020Z,74.54
2022-09-24T01:05:28.300Z,74.80
2022-09-24T01:07:56.500Z,74.45
2022-09-24T01:10:51.204Z,73.63
2022-09-24T01:13:48.447Z,73.64
2022-09-24T01:16:26.075Z,73.91
2022-09-24T01:19:05.807Z,73.21
2022-09-24T01:21:38.785Z,74.26
2022-09-24T01:24:29.138Z,74.08
2022-09-24T01:27:04.199Z,73.88
2022-09-24T01:29:56.293Z,73.74
2022-09-24T01:32:32.482Z,74.04
2022-09-24T01:35:04.161Z,74.63
2022-09-24T01:37:34.780Z,74.62
2022-09-24T01:40:06.322Z,74.66
2022-09-24T01:42:35.064Z,75.31
2022-09-24T01:45:05.019Z,75.44
2022-09-24T01:47:39.828Z,75.38
2022-09-24T01:50:09.632Z,75.42
2022-09-24T01:52:43.666Z,75.36
2022-09-24T01:55:14.809Z,75.30
2022-09-24T01:57:45.814Z,75.57
2022-09-24T02:00:16.907Z,75.43
2022-09-24T02:02:47.457Z,75.86
2022-09-24T02:05:18.763Z,75.62
2022-09-24T02:07:50.876Z,76.11
2022-09-24T02:10:21.466Z,76.17
2022-09-24T02:12:53.744Z,76.42
2022-09-24T02:15:31.386Z,76.54
2022-09-24T02:18:05.421Z,77.09
2022-09-24T02:20:35.995Z,77.08
2022-09-24T02:23:05.400Z,77.05
2022-09-24T02:25:37.229Z,76.81
2022-09-24T02:28:05.351Z,77.04
2022-09-24T02:30:39.306Z,77.07
2022-09-24T02:33:28.379Z,77.32
2022-09-24T02:35:55.502Z,77.77
2022-09-24T02:38:24.098Z,77.57
2022-09-24T02:40:53.195Z,77.06
2022-09-24T02:43:21.247Z,77.13
2022-09-24T02:45:50.964Z,77.05
2022-09-24T02:48:19.707Z,77.07
2022-09-24T02:50:47.773Z,77.08
2022-09-24T02:53:15.814Z,76.48
2022-09-24T02:55:43.839Z,76.06
2022-09-24T02:58:12.295Z,75.19
2022-09-24T03:00:40.322Z,75.30
2022-09-24T03:03:09.747Z,75.61
2022-09-24T03:05:37.879Z,75.84
2022-09-24T03:08:07.650Z,75.47
2022-09-24T03:10:36.052Z,75.45
2022-09-24T03:13:04.042Z,75.23
2022-09-24T03:15:32.094Z,74.93
2022-09-24T03:18:00.205Z,75.58
2022-09-24T03:20:29.819Z,75.60
2022-09-24T03:22:57.869Z,75.21
2022-09-24T03:25:26.931Z,75.71
2022-09-24T03:27:55.037Z,76.32
2022-09-24T03:30:40.535Z,76.29
2022-09-24T03:33:08.606Z,76.21
2022-09-24T03:35:37.959Z,76.34
2022-09-24T03:38:06.028Z,76.68
2022-09-24T03:40:34.079Z,76.83
2022-09-24T03:43:02.149Z,76.92
2022-09-24T03:45:32.063Z,76.82
2022-09-24T03:48:00.098Z,77.39
2022-09-24T03:50:28.223Z,77.87
2022-09-24T03:52:57.585Z,77.67
2022-09-24T03:55:25.607Z,77.47
2022-09-24T03:57:53.693Z,76.96
2022-09-24T04:00:22.087Z,77.54
2022-09-24T04:02:50.250Z,77.79
2022-09-24T04:05:18.907Z,78.04
2022-09-24T04:07:47.041Z,78.13
2022-09-24T04:10:16.633Z,78.55
2022-09-24T04:12:45.737Z,78.46
2022-09-24T04:15:16.616Z,78.82
2022-09-24T04:17:50.915Z,77.82
2022-09-24T04:20:22.805Z,78.62
2022-09-24T04:22:51.496Z,77.53
2022-09-24T04:25:21.726Z,77.25
2022-09-24T04:27:54.810Z,76.91
2022-09-24T04:30:23.526Z,77.50
2022-09-24T04:32:51.998Z,77.24
2022-09-24T04:35:20.432Z,76.86
2022-09-24T04:37:49.168Z,77.02
2022-09-24T04:40:17.647Z,77.32
2022-09-24T04:42:47.372Z,78.05
2022-09-24T04:45:20.260Z,77.71
2022-09-24T04:47:56.187Z,77.10
2022-09-24T04:50:24.956Z,77.74
2022-09-24T04:52:54.442Z,77.93
2022-09-24T04:55:22.836Z,78.29
2022-09-24T04:57:52.591Z,77.44
2022-09-24T05:00:22.120Z,77.24
2022-09-24T05:02:57.292Z,76.89
2022-09-24T05:05:25.489Z,77.04
2022-09-24T05:07:53.700Z,76.44
2022-09-24T05:10:21.802Z,76.68
2022-09-24T05:12:49.915Z,76.22
2022-09-24T05:15:20.273Z,78.57
2022-09-24T05:17:49.196Z,78.09
2022-09-24T05:20:17.916Z,78.28
2022-09-24T05:22:46.740Z,77.78
2022-09-24T05:25:15.984Z,77.34
2022-09-24T05:27:46.291Z,76.06
2022-09-24T05:30:15.163Z,76.57
2022-09-24T05:32:44.689Z,76.94
2022-09-24T05:35:13.836Z,76.79
2022-09-24T05:37:42.661Z,76.32
2022-09-24T05:40:29.102Z,75.77
2022-09-24T05:43:01.546Z,75.79
2022-09-24T05:45:29.747Z,75.11
2022-09-24T05:48:00.180Z,74.86
2022-09-24T05:50:28.601Z,75.13
2022-09-24T05:52:57.205Z,75.61
2022-09-24T05:55:30.043Z,75.79
2022-09-24T05:58:04.361Z,74.87
2022-09-24T06:00:32.638Z,75.67
2022-09-24T06:03:08.060Z,75.47
2022-09-24T06:05:36.638Z,75.25
2022-09-24T06:08:05.016Z,75.65
2022-09-24T06:10:33.460Z,76.11
2022-09-24T06:13:01.691Z,76.47
2022-09-24T06:15:29.718Z,75.24
2022-09-24T06:17:57.821Z,75.53
2022-09-24T06:20:27.603Z,74.92
2022-09-24T06:22:57.558Z,74.83
2022-09-24T06:25:26.084Z,74.22
2022-09-24T06:28:01.841Z,73.97
2022-09-24T06:30:31.501Z,73.48
2022-09-24T06:33:03.270Z,72.38
2022-09-24T06:35:33.170Z,72.57
2022-09-24T06:38:01.429Z,72.17
2022-09-24T06:40:35.555Z,72.67
2022-09-24T06:43:05.255Z,72.44
2022-09-24T06:45:33.473Z,71.94
2022-09-24T06:48:03.082Z,71.84
2022-09-24T06:50:34.464Z,71.90
2022-09-24T06:53:06.459Z,71.33
2022-09-24T06:55:35.024Z,71.14
2022-09-24T06:58:04.616Z,70.94
2022-09-24T07:00:33.230Z,71.67
2022-09-24T07:03:01.454Z,71.52
2022-09-24T07:05:29.523Z,71.50
2022-09-24T07:07:59.024Z,71.38
2022-09-24T07:10:27.518Z,71.68
2022-09-24T07:12:55.788Z,71.51
2022-09-24T07:15:23.859Z,71.05
2022-09-24T07:17:56.279Z,70.91
2022-09-24T07:20:24.893Z,71.17
2022-09-24T07:22:53.024Z,70.98
2022-09-24T07:25:22.555Z,70.43
2022-09-24T07:27:50.723Z,70.78
2022-09-24T07:30:19.232Z,71.42
2022-09-24T07:32:48.390Z,71.63
2022-09-24T07:35:16.663Z,71.05
2022-09-24T07:37:44.724Z,70.90
2022-09-24T07:40:12.876Z,70.63
2022-09-24T07:42:49.693Z,70.49
2022-09-24T07:45:18.566Z,70.39
2022-09-24T07:47:46.951Z,70.80
2022-09-24T07:50:15.330Z,70.68
2022-09-24T07:52:43.658Z,70.07
2022-09-24T07:55:11.964Z,69.85
2022-09-24T07:57:40.597Z,69.64
2022-09-24T08:00:13.083Z,70.63
2022-09-24T08:02:41.671Z,69.91
2022-09-24T08:05:10.984Z,69.60
2022-09-24T08:07:39.052Z,69.49
2022-09-24T08:10:07.888Z,69.71
2022-09-24T08:12:36.065Z,69.79
2022-09-24T08:15:04.665Z,68.81
2022-09-24T08:17:34.187Z,68.35
2022-09-24T08:20:02.837Z,68.70
2022-09-24T08:22:31.674Z,68.96
2022-09-24T08:25:00.484Z,68.21
2022-09-24T08:27:29.410Z,68.38
2022-09-24T08:29:57.989Z,68.26
2022-09-24T08:32:26.148Z,67.60
2022-09-24T08:34:55.631Z,67.40
2022-09-24T08:37:23.768Z,66.04
2022-09-24T08:39:51.966Z,66.32
2022-09-24T08:42:29.903Z,66.00
2022-09-24T08:45:17.262Z,65.98
2022-09-24T08:47:49.590Z,65.68
2022-09-24T08:50:20.983Z,65.27
2022-09-24T08:53:04.705Z,65.05
2022-09-24T08:55:36.657Z,65.00
2022-09-24T08:58:26.621Z,65.01
2022-09-24T09:00:58.933Z,65.39
2022-09-24T09:03:33.634Z,64.95
2022-09-24T09:06:04.804Z,65.13
2022-09-24T09:09:05.558Z,64.70
2022-09-24T09:11:34.792Z,63.90
2022-09-24T09:14:07.697Z,63.88
2022-09-24T09:16:44.248Z,64.18
2022-09-24T09:19:15.293Z,64.29
2022-09-24T09:21:52.774Z,64.08
2022-09-24T09:24:24.297Z,63.54
2022-09-24T09:26:56.216Z,63.17
2022-09-24T09:29:26.077Z,62.39
2022-09-24T09:32:05.320Z,62.48
2022-09-24T09:34:53.636Z,62.06
2022-09-24T09:37:29.259Z,62.25
2022-09-24T09:40:10.095Z,61.79
2022-09-24T09:42:40.633Z,62.74
2022-09-24T09:45:26.921Z,61.75
2022-09-24T09:47:57.784Z,61.83
2022-09-24T09:50:29.165Z,61.43
2022-09-24T09:53:03.694Z,60.65
2022-09-24T09:55:35.913Z,60.87
2022-09-24T09:58:12.773Z,61.13
2022-09-24T10:00:42.161Z,61.24
2022-09-24T10:03:24.216Z,61.08
2022-09-24T10:05:59.678Z,59.28
2022-09-24T10:08:30.550Z,59.85
2022-09-24T10:11:08.017Z,59.60
2022-09-24T10:13:37.249Z,60.30
2022-09-24T10:16:06.768Z,59.49
2022-09-24T10:18:37.924Z,59.62
2022-09-24T10:21:12.139Z,60.08
2022-09-24T10:23:44.568Z,59.61
2022-09-24T10:26:12.920Z,59.89
2022-09-24T10:29:05.211Z,59.57
2022-09-24T10:31:36.618Z,59.44
2022-09-24T10:34:07.176Z,59.29
2022-09-24T10:36:36.425Z,58.99
2022-09-24T10:39:13.986Z,58.79
2022-09-24T10:41:47.790Z,58.75
2022-09-24T10:44:21.104Z,59.05
2022-09-24T10:47:19.010Z,58.73
2022-09-24T10:49:55.785Z,59.05
2022-09-24T10:52:37.607Z,58.79
2022-09-24T10:55:16.700Z,58.85
2022-09-24T10:57:53.278Z,58.73
2022-09-24T11:00:22.902Z,58.49
2022-09-24T11:03:25.741Z,58.63
2022-09-24T11:05:55.489Z,58.31
2022-09-24T11:08:48.802Z,58.80
2022-09-24T11:11:31.389Z,58.95
2022-09-24T11:14:10.100Z,59.03
2022-09-24T11:17:15.854Z,59.20
2022-09-24T11:19:55.618Z,58.97
2022-09-24T11:22:30.856Z,59.31
2022-09-24T11:25:18.215Z,59.11
2022-09-24T11:27:53.866Z,58.47
2022-09-24T11:30:24.959Z,58.25
2022-09-24T11:33:04.509Z,57.92
2022-09-24T11:35:56.674Z,58.12
2022-09-24T11:38:34.284Z,57.60
2022-09-24T11:41:12.731Z,57.51
2022-09-24T11:43:55.090Z,57.33
2022-09-24T11:46:36.658Z,57.16
2022-09-24T11:49:29.597Z,56.95
2022-09-24T11:52:03.149Z,56.68
2022-09-24T11:54:34.756Z,56.50
2022-09-24T11:57:05.672Z,56.68
2022-09-24T11:59:39.882Z,56.57
2022-09-24T12:02:17.086Z,56.70
2022-09-24T12:04:56.127Z,56.38
2022-09-24T12:07:28.843Z,56.48
2022-09-24T12:10:00.739Z,56.75
2022-09-24T12:12:31.053Z,56.90
2022-09-24T12:15:03.248Z,56.55
2022-09-24T12:17:36.937Z,55.79
2022-09-24T12:20:08.289Z,55.40
2022-09-24T12:22:38.730Z,54.90
2022-09-24T12:25:12.559Z,54.78
2022-09-24T12:27:40.910Z,54.18
2022-09-24T12:30:40.705Z,53.79
2022-09-24T12:33:12.650Z,54.43
2022-09-24T12:35:59.004Z,53.84
2022-09-24T12:38:31.349Z,54.04
2022-09-24T12:41:23.271Z,54.09
2022-09-24T12:43:54.358Z,53.92
2022-09-24T12:46:26.939Z,54.20
2022-09-24T12:48:55.765Z,54.87
2022-09-24T12:51:24.253Z,55.13
2022-09-24T12:54:07.591Z,54.73
2022-09-24T12:56:35.889Z,55.23
2022-09-24T12:59:05.729Z,55.33
2022-09-24T13:01:35.860Z,55.70
2022-09-24T13:04:08.235Z,55.49
2022-09-24T13:06:38.199Z,55.65
2022-09-24T13:09:26.330Z,55.81
2022-09-24T13:12:03.873Z,55.40
2022-09-24T13:14:32.688Z,55.58
2022-09-24T13:17:06.809Z,54.87
2022-09-24T13:19:37.420Z,55.39
2022-09-24T13:22:06.149Z,55.70
2022-09-24T13:24:46.789Z,55.81
2022-09-24T13:27:26.827Z,55.98
2022-09-24T13:30:05.542Z,55.94
2022-09-24T13:32:38.316Z,55.36
2022-09-24T13:35:11.253Z,55.17
2022-09-24T13:37:42.747Z,55.22
2022-09-24T13:40:18.092Z,55.18
2022-09-24T13:42:49.099Z,55.29
2022-09-24T13:45:19.639Z,55.11
2022-09-24T13:47:51.131Z,54.75
2022-09-24T13:50:20.993Z,54.66
2022-09-24T13:52:52.927Z,53.88
2022-09-24T13:55:24.189Z,54.40
2022-09-24T13:57:52.651Z,54.72
2022-09-24T14:00:26.291Z,54.61
2022-09-24T14:03:02.519Z,54.72
2022-09-24T14:05:31.945Z,54.93
2022-09-24T14:08:04.733Z,54.92
2022-09-24T14:10:33.181Z,55.05
2022-09-24T14:13:03.213Z,55.20
2022-09-24T14:15:31.369Z,55.33
2022-09-24T14:18:01.202Z,55.40
2022-09-24T14:20:31.538Z,55.49
2022-09-24T14:22:59.830Z,55.70
2022-09-24T14:25:30.069Z,56.08
2022-09-24T14:28:00.461Z,56.23
2022-09-24T14:30:30.512Z,56.26
2022-09-24T14:33:01.466Z,56.67
2022-09-24T14:35:32.122Z,56.68
2022-09-24T14:38:04.416Z,56.87
2022-09-24T14:40:40.626Z,57.07
2022-09-24T14:43:17.689Z,56.95
2022-09-24T14:45:47.074Z,57.69
2022-09-24T14:48:24.831Z,57.67
2022-09-24T14:50:52.958Z,58.12
2022-09-24T14:53:23.812Z,58.33
2022-09-24T14:55:52.516Z,58.41
2022-09-24T14:58:25.515Z,58.44
2022-09-24T15:00:56.311Z,58.79
2022-09-24T15:03:30.051Z,58.83
2022-09-24T15:06:06.073Z,58.80
2022-09-24T15:08:34.358Z,59.15
2022-09-24T15:11:04.809Z,59.19
2022-09-24T15:13:35.341Z,59.25
2022-09-24T15:16:09.355Z,59.13
2022-09-24T15:18:38.906Z,59.16
2022-09-24T15:21:11.089Z,59.24
2022-09-24T15:23:39.266Z,59.29
2022-09-24T15:26:07.988Z,59.46
2022-09-24T15:28:35.970Z,59.23
2022-09-24T15:31:04.081Z,59.75
2022-09-24T15:33:32.085Z,59.38
2022-09-24T15:36:01.559Z,59.53
2022-09-24T15:38:29.745Z,59.80
2022-09-24T15:40:59.445Z,60.18
2022-09-24T15:43:27.801Z,60.17
2022-09-24T15:45:55.999Z,60.39
2022-09-24T15:48:24.152Z,60.73
2022-09-24T15:50:52.432Z,60.93
2022-09-24T15:53:24.029Z,60.71
2022-09-24T15:55:54.421Z,61.33
2022-09-24T15:58:23.023Z,61.65
2022-09-24T16:00:52.842Z,61.81
2022-09-24T16:03:23.771Z,61.86
2022-09-24T16:05:52.182Z,61.93
2022-09-24T16:08:21.779Z,61.47
2022-09-24T16:10:50.162Z,61.51
2022-09-24T16:13:19.088Z,61.52
2022-09-24T16:15:47.748Z,61.65
2022-09-24T16:18:17.781Z,61.98
2022-09-24T16:20:47.542Z,62.01
2022-09-24T16:23:16.713Z,62.17
2022-09-24T16:25:56.973Z,62.25
2022-09-24T16:28:26.289Z,62.52
2022-09-24T16:30:54.886Z,62.59
2022-09-24T16:33:23.544Z,62.65
2022-09-24T16:35:51.922Z,63.10
2022-09-24T16:38:22.921Z,63.22
2022-09-24T16:40:52.305Z,63.68
2022-09-24T16:43:21.907Z,64.72
2022-09-24T16:45:50.169Z,64.97
2022-09-24T16:48:18.482Z,64.87
2022-09-24T16:50:49.588Z,64.79
2022-09-24T16:53:17.701Z,64.73
2022-09-24T16:55:45.862Z,64.77
2022-09-24T16:58:13.913Z,64.84
2022-09-24T17:00:43.994Z,64.61
2022-09-24T17:03:12.548Z,64.58
2022-09-24T17:05:41.291Z,64.53
2022-09-24T17:08:09.499Z,64.63
2022-09-24T17:10:40.200Z,64.86
2022-09-24T17:13:10.890Z,64.86
2022-09-24T17:15:39.101Z,65.05
2022-09-24T17:18:08.636Z,65.33
2022-09-24T17:20:37.066Z,65.19
2022-09-24T17:23:05.675Z,65.83
2022-09-24T17:25:33.820Z,66.21
2022-09-24T17:28:04.110Z,66.31
2022-09-24T17:30:33.004Z,66.64
2022-09-24T17:33:01.183Z,65.83
2022-09-24T17:35:30.723Z,66.56
2022-09-24T17:37:58.925Z,67.15
2022-09-24T17:40:27.502Z,67.24
2022-09-24T17:42:55.786Z,67.53
2022-09-24T17:45:23.959Z,67.80
2022-09-24T17:47:57.846Z,67.56
2022-09-24T17:50:26.156Z,67.89
2022-09-24T17:52:55.728Z,68.19
2022-09-24T17:55:23.816Z,68.50
2022-09-24T17:57:51.948Z,68.56
2022-09-24T18:00:20.228Z,68.59
2022-09-24T18:02:48.450Z,68.69
2022-09-24T18:05:16.855Z,68.92
2022-09-24T18:07:45.403Z,69.06
2022-09-24T18:10:17.314Z,69.08
2022-09-24T18:12:45.553Z,69.20
2022-09-24T18:15:13.727Z,69.79
2022-09-24T18:17:41.909Z,69.71
2022-09-24T18:20:10.321Z,69.63
2022-09-24T18:22:38.691Z,69.56
2022-09-24T18:25:07.899Z,70.11
2022-09-24T18:27:38.619Z,70.22
2022-09-24T18:30:11.271Z,70.78
2022-09-24T18:32:40.255Z,71.14
2022-09-24T18:35:09.600Z,71.09
2022-09-24T18:37:37.831Z,71.05
2022-09-24T18:40:07.078Z,71.39
2022-09-24T18:42:35.342Z,71.56
2022-09-24T18:45:06.147Z,71.43
2022-09-24T18:47:38.301Z,71.59
2022-09-24T18:50:07.615Z,71.87
2022-09-24T18:52:35.890Z,71.92
2022-09-24T18:55:04.086Z,72.40
2022-09-24T18:57:32.568Z,72.50
2022-09-24T19:00:00.772Z,72.62
2022-09-24T19:02:31.241Z,72.22
2022-09-24T19:04:59.578Z,72.57
2022-09-24T19:07:27.710Z,72.72
2022-09-24T19:09:55.992Z,72.88
2022-09-24T19:12:24.131Z,73.23
2022-09-24T19:14:54.424Z,73.67
2022-09-24T19:17:22.590Z,73.57
2022-09-24T19:19:52.660Z,73.50
2022-09-24T19:22:21.056Z,74.04
2022-09-24T19:24:49.661Z,74.08
2022-09-24T19:27:17.820Z,74.55
2022-09-24T19:29:46.190Z,74.48
2022-09-24T19:32:14.506Z,74.93
2022-09-24T19:34:42.702Z,75.06
2022-09-24T19:37:12.131Z,75.13
2022-09-24T19:39:40.374Z,75.04
2022-09-24T19:42:08.528Z,75.43
2022-09-24T19:44:36.712Z,75.78
2022-09-24T19:47:05.121Z,75.71
2022-09-24T19:49:33.260Z,76.07
2022-09-24T19:52:01.443Z,75.99
2022-09-24T19:54:31.361Z,76.20
2022-09-24T19:56:59.538Z,76.55
2022-09-24T19:59:27.616Z,76.83
2022-09-24T20:01:55.874Z,77.20
2022-09-24T20:04:24.704Z,77.01
2022-09-24T20:06:54.274Z,77.28
2022-09-24T20:09:22.359Z,77.39
2022-09-24T20:11:51.855Z,77.80
2022-09-24T20:14:21.442Z,78.02
2022-09-24T20:16:49.796Z,78.33
2022-09-24T20:19:20.301Z,78.53
2022-09-24T20:21:48.503Z,78.75
2022-09-24T20:24:16.984Z,79.14
2022-09-24T20:27:02.471Z,79.60
2022-09-24T20:29:32.071Z,79.92
2022-09-24T20:32:00.277Z,79.99
2022-09-24T20:34:33.710Z,80.14
2022-09-24T20:37:02.536Z,80.17
2022-09-24T20:39:30.920Z,80.20
2022-09-24T20:42:01.749Z,79.95
2022-09-24T20:44:31.695Z,80.35
2022-09-24T20:46:59.947Z,80.45
2022-09-24T20:49:28.261Z,81.31
2022-09-24T20:51:57.982Z,81.43
2022-09-24T20:54:28.247Z,80.79
2022-09-24T20:56:56.723Z,80.93
2022-09-24T20:59:25.687Z,80.73
2022-09-24T21:01:55.700Z,80.81
2022-09-24T21:04:24.590Z,81.02
2022-09-24T21:06:52.721Z,81.28
2022-09-24T21:09:21.033Z,81.26
2022-09-24T21:11:50.196Z,81.31
2022-09-24T21:14:18.697Z,81.07
2022-09-24T21:16:47.521Z,81.85
2022-09-24T21:19:17.162Z,82.31
2022-09-24T21:21:45.413Z,81.96
2022-09-24T21:24:15.248Z,81.14
2022-09-24T21:26:45.037Z,81.70
2022-09-24T21:29:15.490Z,81.80
2022-09-24T21:31:46.108Z,81.30
2022-09-24T21:34:16.831Z,81.68
2022-09-24T21:36:46.684Z,81.98
2022-09-24T21:39:17.099Z,81.99
2022-09-24T21:41:48.243Z,82.49
2022-09-24T21:44:17.606Z,82.61
2022-09-24T21:46:46.235Z,82.30
2022-09-24T21:49:17.362Z,82.08
2022-09-24T21:51:45.898Z,82.02
2022-09-24T21:54:17.509Z,82.52
2022-09-24T21:56:46.339Z,82.61
2022-09-24T21:59:32.056Z,82.04
2022-09-24T22:02:00.352Z,81.70
2022-09-24T22:04:32.261Z,81.92
2022-09-24T22:07:00.662Z,82.42
2022-09-24T22:09:29.184Z,82.61
2022-09-24T22:11:57.877Z,82.59
2022-09-24T22:14:26.189Z,82.80
2022-09-24T22:16:55.438Z,82.62
2022-09-24T22:19:23.993Z,82.23
2022-09-24T22:21:53.798Z,82.53
2022-09-24T22:24:22.170Z,82.66
2022-09-24T22:26:50.349Z,82.49
2022-09-24T22:29:18.624Z,82.55
2022-09-24T22:31:46.848Z,81.91
2022-09-24T22:34:32.420Z,82.31
2022-09-24T22:37:05.990Z,82.91
2022-09-24T22:39:35.015Z,83.46
2022-09-24T22:42:03.255Z,83.32
2022-09-24T22:44:31.559Z,82.92
2022-09-24T22:46:59.571Z,83.13
2022-09-24T22:49:27.702Z,83.47
2022-09-24T22:51:55.860Z,83.53
2022-09-24T22:54:25.475Z,83.72
2022-09-24T22:56:53.678Z,83.69
2022-09-24T22:59:21.818Z,83.79
2022-09-24T23:01:50.005Z,84.47
2022-09-24T23:04:18.300Z,84.47
2022-09-24T23:06:46.335Z,84.78
2022-09-24T23:09:14.607Z,84.69
2022-09-24T23:11:44.055Z,85.05
2022-09-24T23:14:13.978Z,84.46
2022-09-24T23:16:43.791Z,83.98
2022-09-24T23:19:14.696Z,83.73
2022-09-24T23:21:42.946Z,84.48
2022-09-24T23:24:15.374Z,84.89
2022-09-24T23:26:45.037Z,84.76
2022-09-24T23:29:14.250Z,84.85
2022-09-24T23:31:42.941Z,84.57
2022-09-24T23:34:13.159Z,84.46
2022-09-24T23:36:41.485Z,84.46
2022-09-24T23:39:09.644Z,84.34
2022-09-24T23:41:37.975Z,84.42
2022-09-24T23:44:07.695Z,83.90
2022-09-24T23:46:35.839Z,84.52
2022-09-24T23:49:04.332Z,84.97
2022-09-24T23:51:32.508Z,85.16
2022-09-24T23:54:00.841Z,85.47
2022-09-24T23:56:29.269Z,85.26
2022-09-24T23:58:57.732Z,84.58
